createdAt,value
2023-03-20T00:00:13.892Z,137.68
2023-03-20T00:02:41.705Z,132.85
2023-03-20T00:05:08.104Z,133.73
2023-03-20T00:07:34.504Z,131.27
2023-03-20T00:10:00.802Z,127.32
2023-03-20T00:12:30.958Z,130.75
2023-03-20T00:14:57.391Z,127.28
2023-03-20T00:17:23.784Z,124.32
2023-03-20T00:19:50.126Z,125.07
2023-03-20T00:22:16.621Z,121.38
2023-03-20T00:24:43.169Z,122.70
2023-03-20T00:27:09.556Z,121.00
2023-03-20T00:29:35.880Z,120.55
2023-03-20T00:32:02.268Z,116.15
2023-03-20T00:34:28.833Z,115.63
2023-03-20T00:36:55.262Z,114.63
2023-03-20T00:39:21.639Z,113.95
2023-03-20T00:41:48.079Z,114.57
2023-03-20T00:44:14.606Z,112.30
2023-03-20T00:46:41.092Z,111.00
2023-03-20T00:49:07.550Z,112.97
2023-03-20T00:51:34.171Z,104.57
2023-03-20T00:54:00.602Z,106.85
2023-03-20T00:56:26.968Z,106.55
2023-03-20T00:58:53.359Z,101.28
2023-03-20T01:01:19.790Z,102.35
2023-03-20T01:03:46.617Z,102.63
2023-03-20T01:06:13.132Z,99.45
2023-03-20T01:08:39.522Z,96.25
2023-03-20T01:11:05.894Z,100.07
2023-03-20T01:13:32.277Z,96.68
2023-03-20T01:15:58.596Z,93.53
2023-03-20T01:18:24.925Z,95.25
2023-03-20T01:20:51.315Z,92.82
2023-03-20T01:23:17.843Z,91.75
2023-03-20T01:25:44.174Z,91.20
2023-03-20T01:28:11.004Z,92.15
2023-03-20T01:30:37.343Z,90.30
2023-03-20T01:33:03.937Z,90.00
2023-03-20T01:35:30.568Z,88.25
2023-03-20T01:37:56.956Z,89.72
2023-03-20T01:40:23.492Z,87.50
2023-03-20T01:42:49.831Z,86.75
2023-03-20T01:45:16.186Z,85.35
2023-03-20T01:47:42.752Z,87.03
2023-03-20T01:50:09.346Z,87.00
2023-03-20T01:52:35.844Z,85.25
2023-03-20T01:55:02.177Z,82.97
2023-03-20T01:57:28.650Z,82.38
2023-03-20T01:59:55.064Z,80.22
2023-03-20T02:02:21.424Z,80.15
2023-03-20T02:04:48.988Z,81.22
2023-03-20T02:07:15.496Z,82.30
2023-03-20T02:09:42.401Z,78.75
2023-03-20T02:12:08.740Z,75.75
2023-03-20T02:14:35.335Z,77.20
2023-03-20T02:17:02.177Z,76.22
2023-03-20T02:19:28.759Z,74.03
2023-03-20T02:21:55.178Z,75.93
2023-03-20T02:24:21.572Z,73.85
2023-03-20T02:26:47.976Z,72.43
2023-03-20T02:29:14.714Z,71.28
2023-03-20T02:31:41.494Z,71.03
2023-03-20T02:34:07.825Z,71.25
2023-03-20T02:36:34.210Z,72.00
2023-03-20T02:39:00.598Z,68.82
2023-03-20T02:41:27.532Z,68.40
2023-03-20T02:43:54.291Z,68.47
2023-03-20T02:46:20.733Z,67.88
2023-03-20T02:48:47.326Z,68.00
2023-03-20T02:51:13.772Z,66.97
2023-03-20T02:53:40.088Z,64.25
2023-03-20T02:56:06.530Z,65.90
2023-03-20T02:58:33.064Z,64.20
2023-03-20T03:00:59.528Z,61.40
2023-03-20T03:03:25.975Z,62.97
2023-03-20T03:05:52.394Z,61.13
2023-03-20T03:08:18.842Z,60.90
2023-03-20T03:10:45.294Z,59.33
2023-03-20T03:13:11.887Z,59.75
2023-03-20T03:15:38.546Z,59.85
2023-03-20T03:18:05.076Z,56.85
2023-03-20T03:20:31.490Z,57.05
2023-03-20T03:22:57.897Z,58.70
2023-03-20T03:25:24.289Z,56.65
2023-03-20T03:27:50.743Z,55.40
2023-03-20T03:30:17.532Z,53.33
2023-03-20T03:32:44.029Z,52.42
2023-03-20T03:35:10.557Z,54.97
2023-03-20T03:37:36.978Z,53.72
2023-03-20T03:40:03.915Z,52.88
2023-03-20T03:42:30.737Z,52.40
2023-03-20T03:44:57.592Z,51.35
2023-03-20T03:47:24.354Z,53.95
2023-03-20T03:49:50.763Z,50.33
2023-03-20T03:52:17.072Z,48.78
2023-03-20T03:54:43.350Z,49.28
2023-03-20T03:57:10.070Z,49.85
2023-03-20T03:59:36.458Z,50.92
2023-03-20T04:02:02.928Z,49.63
2023-03-20T04:04:29.464Z,48.67
2023-03-20T04:06:56.409Z,46.75
2023-03-20T04:09:22.794Z,47.40
2023-03-20T04:11:49.571Z,46.25
2023-03-20T04:14:15.978Z,45.33
2023-03-20T04:16:42.532Z,46.65
2023-03-20T04:19:09.754Z,47.85
2023-03-20T04:21:36.070Z,45.00
2023-03-20T04:24:02.962Z,43.90
2023-03-20T04:26:29.516Z,44.40
2023-03-20T04:28:55.901Z,42.13
2023-03-20T04:31:22.279Z,43.53
2023-03-20T04:33:48.745Z,41.95
2023-03-20T04:36:15.183Z,41.60
2023-03-20T04:38:41.832Z,41.40
2023-03-20T04:41:08.206Z,42.53
2023-03-20T04:43:34.887Z,41.15
2023-03-20T04:46:01.462Z,40.45
2023-03-20T04:48:27.879Z,38.83
2023-03-20T04:50:54.191Z,38.55
2023-03-20T04:53:20.530Z,39.90
2023-03-20T04:55:47.164Z,38.50
2023-03-20T04:58:13.496Z,39.08
2023-03-20T05:00:40.062Z,39.15
2023-03-20T05:03:06.998Z,38.20
2023-03-20T05:05:33.552Z,38.05
2023-03-20T05:07:59.962Z,37.65
2023-03-20T05:10:26.555Z,38.10
2023-03-20T05:12:53.615Z,36.50
2023-03-20T05:15:20.039Z,36.63
2023-03-20T05:17:46.396Z,37.20
2023-03-20T05:20:13.186Z,35.95
2023-03-20T05:22:39.571Z,35.58
2023-03-20T05:25:05.962Z,34.97
2023-03-20T05:27:32.369Z,34.00
2023-03-20T05:29:58.913Z,35.05
2023-03-20T05:32:25.370Z,33.72
2023-03-20T05:34:51.703Z,33.85
2023-03-20T05:37:18.243Z,33.65
2023-03-20T05:39:44.578Z,33.13
2023-03-20T05:42:10.995Z,33.50
2023-03-20T05:44:37.514Z,32.92
2023-03-20T05:47:04.045Z,32.42
2023-03-20T05:49:30.422Z,32.88
2023-03-20T05:51:56.768Z,31.58
2023-03-20T05:54:23.484Z,30.67
2023-03-20T05:56:49.887Z,31.80
2023-03-20T05:59:16.497Z,31.30
2023-03-20T06:01:42.894Z,30.67
2023-03-20T06:04:09.400Z,31.00
2023-03-20T06:06:35.772Z,30.40
2023-03-20T06:09:02.117Z,30.17
2023-03-20T06:11:28.396Z,29.17
2023-03-20T06:13:54.801Z,29.10
2023-03-20T06:16:21.172Z,28.98
2023-03-20T06:18:47.714Z,28.92
2023-03-20T06:21:14.352Z,29.50
2023-03-20T06:23:40.702Z,29.67
2023-03-20T06:26:07.223Z,26.25
2023-03-20T06:28:33.808Z,22.80
2023-03-20T06:31:00.198Z,25.45
2023-03-20T06:33:26.693Z,25.23
2023-03-20T06:35:53.199Z,24.38
2023-03-20T06:38:19.751Z,23.65
2023-03-20T06:40:46.103Z,23.08
2023-03-20T06:43:12.576Z,23.40
2023-03-20T06:45:39.175Z,22.25
2023-03-20T06:48:05.516Z,21.70
2023-03-20T06:50:31.928Z,21.30
2023-03-20T06:52:58.275Z,23.30
2023-03-20T06:55:24.821Z,21.52
2023-03-20T06:57:51.350Z,22.63
2023-03-20T07:00:17.689Z,23.83
2023-03-20T07:02:44.489Z,24.10
2023-03-20T07:05:11.155Z,25.40
2023-03-20T07:07:37.666Z,27.27
2023-03-20T07:10:03.978Z,32.55
2023-03-20T07:12:30.388Z,35.63
2023-03-20T07:14:57.065Z,37.30
2023-03-20T07:17:23.458Z,40.75
2023-03-20T07:19:49.849Z,43.28
2023-03-20T07:22:16.403Z,45.58
2023-03-20T07:24:43.272Z,46.55
2023-03-20T07:27:10.181Z,49.08
2023-03-20T07:29:36.748Z,47.40
2023-03-20T07:32:03.458Z,49.88
2023-03-20T07:34:29.840Z,49.47
2023-03-20T07:36:56.155Z,52.33
2023-03-20T07:39:22.504Z,52.83
2023-03-20T07:41:48.861Z,53.80
2023-03-20T07:44:15.525Z,54.35
2023-03-20T07:46:41.995Z,54.15
2023-03-20T07:49:08.338Z,53.15
2023-03-20T07:51:34.635Z,54.33
2023-03-20T07:54:01.116Z,53.83
2023-03-20T07:56:27.530Z,56.00
2023-03-20T07:58:54.725Z,52.92
2023-03-20T08:01:21.570Z,54.20
2023-03-20T08:03:48.031Z,55.45
2023-03-20T08:06:14.760Z,52.90
2023-03-20T08:08:41.433Z,53.92
2023-03-20T08:11:07.817Z,53.85
2023-03-20T08:13:34.177Z,52.78
2023-03-20T08:16:00.677Z,53.30
2023-03-20T08:18:27.259Z,50.47
2023-03-20T08:20:53.613Z,50.90
2023-03-20T08:23:20.857Z,50.88
2023-03-20T08:25:47.846Z,50.15
2023-03-20T08:28:14.223Z,50.53
2023-03-20T08:30:40.858Z,49.03
2023-03-20T08:33:07.640Z,49.85
2023-03-20T08:35:34.820Z,47.90
2023-03-20T08:38:01.155Z,49.33
2023-03-20T08:40:27.483Z,47.50
2023-03-20T08:42:53.924Z,45.67
2023-03-20T08:45:20.240Z,46.53
2023-03-20T08:47:46.591Z,46.13
2023-03-20T08:50:12.938Z,44.88
2023-03-20T08:52:39.278Z,45.33
2023-03-20T08:55:05.848Z,47.70
2023-03-20T08:57:32.622Z,47.53
2023-03-20T08:59:59.357Z,47.05
2023-03-20T09:02:25.862Z,47.55
2023-03-20T09:04:52.231Z,45.17
2023-03-20T09:07:18.541Z,45.42
2023-03-20T09:09:44.997Z,45.83
2023-03-20T09:12:11.361Z,44.08
2023-03-20T09:14:37.718Z,45.88
2023-03-20T09:17:04.722Z,48.15
2023-03-20T09:19:31.902Z,45.80
2023-03-20T09:21:58.433Z,42.88
2023-03-20T09:24:25.111Z,44.55
2023-03-20T09:26:51.448Z,43.97
2023-03-20T09:29:17.836Z,45.38
2023-03-20T09:31:44.186Z,44.03
2023-03-20T09:34:10.647Z,43.50
2023-03-20T09:36:37.103Z,42.67
2023-03-20T09:39:03.460Z,40.55
2023-03-20T09:41:30.061Z,40.90
2023-03-20T09:43:56.374Z,40.00
2023-03-20T09:46:22.750Z,41.08
2023-03-20T09:48:49.358Z,41.50
2023-03-20T09:51:16.049Z,40.47
2023-03-20T09:53:42.677Z,40.08
2023-03-20T09:56:09.453Z,39.90
2023-03-20T09:58:36.078Z,36.17
2023-03-20T10:01:02.451Z,37.72
2023-03-20T10:03:28.926Z,38.25
2023-03-20T10:05:55.378Z,37.92
2023-03-20T10:08:21.849Z,38.55
2023-03-20T10:10:48.289Z,36.83
2023-03-20T10:13:14.726Z,36.70
2023-03-20T10:15:41.136Z,37.05
2023-03-20T10:18:07.599Z,36.15
2023-03-20T10:20:34.203Z,38.22
2023-03-20T10:23:00.711Z,35.85
2023-03-20T10:25:27.382Z,36.55
2023-03-20T10:27:53.740Z,37.78
2023-03-20T10:30:20.335Z,37.28
2023-03-20T10:32:46.953Z,38.58
2023-03-20T10:35:13.818Z,38.53
2023-03-20T10:37:40.130Z,35.95
2023-03-20T10:40:06.711Z,36.58
2023-03-20T10:42:33.001Z,37.20
2023-03-20T10:44:59.574Z,35.47
2023-03-20T10:47:26.927Z,35.92
2023-03-20T10:49:53.460Z,38.15
2023-03-20T10:52:20.099Z,37.45
2023-03-20T10:54:47.111Z,37.80
2023-03-20T10:57:13.655Z,39.70
2023-03-20T10:59:40.040Z,38.95
2023-03-20T11:02:06.398Z,37.35
2023-03-20T11:04:33.232Z,38.55
2023-03-20T11:06:59.651Z,37.53
2023-03-20T11:09:26.069Z,38.33
2023-03-20T11:11:53.088Z,38.42
2023-03-20T11:14:19.456Z,37.67
2023-03-20T11:16:46.000Z,37.38
2023-03-20T11:19:12.580Z,36.28
2023-03-20T11:21:38.984Z,38.10
2023-03-20T11:24:05.269Z,36.58
2023-03-20T11:26:31.576Z,35.75
2023-03-20T11:28:57.929Z,36.55
2023-03-20T11:31:24.678Z,35.38
2023-03-20T11:33:52.046Z,35.86
2023-03-20T11:36:18.774Z,35.20
2023-03-20T11:38:54.065Z,35.38
2023-03-20T11:41:24.392Z,35.22
2023-03-20T11:43:53.921Z,35.00
2023-03-20T11:46:30.127Z,35.88
2023-03-20T11:49:00.111Z,36.55
2023-03-20T11:51:27.630Z,34.85
2023-03-20T11:53:57.038Z,33.20
2023-03-20T11:56:27.976Z,34.38
2023-03-20T11:59:02.585Z,32.80
2023-03-20T12:01:39.950Z,33.63
2023-03-20T12:04:12.475Z,33.83
2023-03-20T12:06:40.036Z,34.60
2023-03-20T12:09:11.069Z,33.08
2023-03-20T12:11:46.536Z,34.25
2023-03-20T12:14:14.765Z,34.85
2023-03-20T12:16:50.531Z,33.88
2023-03-20T12:21:46.152Z,31.80
2023-03-20T12:24:17.294Z,31.73
2023-03-20T12:26:44.038Z,32.13
2023-03-20T12:29:10.977Z,32.72
2023-03-20T12:31:37.719Z,33.63
2023-03-20T12:34:04.365Z,31.60
2023-03-20T12:36:30.988Z,31.13
2023-03-20T12:38:57.655Z,32.80
2023-03-20T12:41:24.564Z,30.90
2023-03-20T12:49:09.664Z,32.97
2023-03-20T12:51:36.051Z,34.33
2023-03-20T12:54:02.420Z,33.17
2023-03-20T12:56:28.952Z,32.30
2023-03-20T12:58:55.398Z,32.42
2023-03-20T13:01:21.955Z,32.58
2023-03-20T13:03:48.534Z,31.73
2023-03-20T13:06:15.045Z,31.92
2023-03-20T13:08:41.373Z,31.17
2023-03-20T13:11:07.770Z,32.45
2023-03-20T13:13:34.418Z,33.13
2023-03-20T13:16:00.804Z,32.35
2023-03-20T13:18:27.273Z,31.48
2023-03-20T13:20:53.678Z,31.70
2023-03-20T13:23:19.986Z,32.85
2023-03-20T13:25:46.426Z,32.17
2023-03-20T13:28:12.731Z,32.45
2023-03-20T13:30:39.177Z,32.10
2023-03-20T13:33:05.551Z,32.53
2023-03-20T13:35:32.297Z,32.58
2023-03-20T13:37:59.000Z,33.55
2023-03-20T13:40:25.466Z,32.03
2023-03-20T13:42:52.021Z,34.38
2023-03-20T13:45:18.435Z,33.38
2023-03-20T13:47:45.124Z,33.90
2023-03-20T13:50:11.751Z,30.90
2023-03-20T13:52:38.197Z,33.80
2023-03-20T13:55:04.515Z,33.97
2023-03-20T13:57:31.097Z,33.40
2023-03-20T13:59:57.486Z,34.38
2023-03-20T14:02:24.288Z,31.02
2023-03-20T14:04:50.775Z,33.47
2023-03-20T14:07:17.347Z,32.35
2023-03-20T14:09:43.888Z,27.38
2023-03-20T14:12:10.406Z,32.70
2023-03-20T14:14:36.704Z,33.88
2023-03-20T14:17:03.591Z,34.70
2023-03-20T14:19:29.953Z,33.88
2023-03-20T14:21:56.786Z,33.70
2023-03-20T14:24:23.281Z,32.67
2023-03-20T14:26:49.676Z,31.88
2023-03-20T14:29:16.114Z,31.65
2023-03-20T14:31:42.518Z,32.63
2023-03-20T14:34:08.836Z,33.17
2023-03-20T14:36:35.884Z,33.75
2023-03-20T14:39:02.340Z,34.47
2023-03-20T14:41:28.926Z,32.85
2023-03-20T14:43:55.473Z,32.22
2023-03-20T14:46:22.045Z,28.95
2023-03-20T14:48:48.979Z,31.75
2023-03-20T14:51:15.736Z,31.67
2023-03-20T14:53:42.137Z,30.15
2023-03-20T14:56:09.039Z,30.80
2023-03-20T14:58:35.581Z,31.23
2023-03-20T15:01:02.329Z,30.92
2023-03-20T15:03:28.976Z,32.03
2023-03-20T15:05:55.736Z,31.20
2023-03-20T15:08:22.527Z,31.95
2023-03-20T15:10:48.918Z,31.10
2023-03-20T15:13:15.659Z,29.58
2023-03-20T15:15:42.110Z,31.15
2023-03-20T15:18:08.452Z,29.73
2023-03-20T15:20:35.206Z,30.20
2023-03-20T15:23:01.994Z,30.35
2023-03-20T15:25:28.477Z,29.95
2023-03-20T15:27:55.216Z,30.73
2023-03-20T15:30:21.582Z,30.02
2023-03-20T15:32:48.315Z,31.35
2023-03-20T15:35:14.741Z,30.08
2023-03-20T15:37:41.080Z,29.35
2023-03-20T15:40:07.987Z,29.10
2023-03-20T15:42:34.298Z,28.13
2023-03-20T15:45:00.678Z,28.73
2023-03-20T15:47:27.621Z,29.90
2023-03-20T15:49:53.979Z,28.70
2023-03-20T15:52:20.471Z,28.70
2023-03-20T15:54:46.964Z,30.58
2023-03-20T15:57:13.508Z,30.42
2023-03-20T15:59:39.895Z,29.52
2023-03-20T16:02:06.322Z,29.85
2023-03-20T16:04:32.631Z,28.38
2023-03-20T16:06:59.179Z,28.48
2023-03-20T16:09:25.724Z,30.48
2023-03-20T16:11:52.334Z,29.02
2023-03-20T16:14:18.723Z,28.65
2023-03-20T16:16:45.091Z,28.02
2023-03-20T16:19:11.564Z,27.95
2023-03-20T16:21:37.924Z,27.70
2023-03-20T16:24:04.627Z,27.77
2023-03-20T16:26:31.112Z,27.55
2023-03-20T16:28:58.086Z,30.10
2023-03-20T16:31:24.617Z,26.60
2023-03-20T16:33:51.284Z,27.75
2023-03-20T16:36:17.613Z,27.42
2023-03-20T16:38:44.212Z,27.33
2023-03-20T16:41:10.543Z,29.02
2023-03-20T16:43:36.864Z,28.25
2023-03-20T16:46:03.297Z,27.30
2023-03-20T16:48:29.811Z,27.73
2023-03-20T16:50:56.105Z,27.48
2023-03-20T16:53:23.099Z,27.10
2023-03-20T16:55:49.454Z,27.52
2023-03-20T16:58:15.858Z,26.92
2023-03-20T17:00:42.329Z,27.55
2023-03-20T17:03:08.753Z,28.52
2023-03-20T17:05:36.810Z,26.65
2023-03-20T17:08:03.396Z,26.63
2023-03-20T17:10:29.782Z,28.38
2023-03-20T17:12:56.243Z,26.75
2023-03-20T17:15:22.669Z,25.98
2023-03-20T17:17:48.972Z,26.65
2023-03-20T17:20:15.543Z,25.90
2023-03-20T17:22:42.118Z,27.80
2023-03-20T17:25:08.701Z,26.48
2023-03-20T17:27:35.189Z,27.10
2023-03-20T17:30:01.598Z,26.20
2023-03-20T17:32:28.006Z,26.92
2023-03-20T17:34:54.294Z,27.05
2023-03-20T17:37:21.047Z,26.52
2023-03-20T17:39:47.403Z,26.17
2023-03-20T17:42:13.806Z,27.20
2023-03-20T17:44:40.141Z,26.23
2023-03-20T17:47:06.560Z,26.75
2023-03-20T17:49:33.086Z,27.08
2023-03-20T17:51:59.574Z,25.48
2023-03-20T17:54:25.907Z,25.23
2023-03-20T17:56:52.456Z,26.02
2023-03-20T17:59:18.818Z,25.95
2023-03-20T18:01:45.263Z,25.77
2023-03-20T18:04:11.820Z,25.50
2023-03-20T18:06:38.232Z,27.80
2023-03-20T18:09:05.239Z,25.73
2023-03-20T18:11:31.862Z,26.77
2023-03-20T18:13:58.341Z,26.77
2023-03-20T18:16:24.784Z,25.90
2023-03-20T18:18:51.822Z,25.38
2023-03-20T18:21:18.204Z,26.05
2023-03-20T18:23:44.715Z,27.27
2023-03-20T18:26:11.120Z,26.08
2023-03-20T18:28:37.445Z,25.52
2023-03-20T18:31:03.808Z,25.95
2023-03-20T18:33:30.211Z,26.08
2023-03-20T18:35:57.243Z,24.42
2023-03-20T18:38:23.634Z,26.02
2023-03-20T18:40:50.001Z,26.27
2023-03-20T18:43:16.482Z,25.15
2023-03-20T18:45:43.229Z,26.33
2023-03-20T18:48:09.679Z,25.35
2023-03-20T18:50:37.653Z,24.52
2023-03-20T18:53:04.264Z,25.92
2023-03-20T18:55:30.865Z,25.58
2023-03-20T18:57:57.240Z,24.42
2023-03-20T19:00:23.530Z,25.15
2023-03-20T19:02:50.042Z,25.02
2023-03-20T19:05:16.695Z,24.88
2023-03-20T19:07:43.092Z,25.45
2023-03-20T19:10:09.668Z,25.48
2023-03-20T19:12:36.507Z,24.98
2023-03-20T19:15:02.804Z,24.95
2023-03-20T19:17:29.235Z,24.90
2023-03-20T19:19:55.643Z,24.90
2023-03-20T19:22:29.230Z,25.65
2023-03-20T19:24:55.949Z,25.10
2023-03-20T19:27:22.340Z,24.10
2023-03-20T19:29:48.824Z,24.75
2023-03-20T19:32:15.114Z,25.27
2023-03-20T19:35:38.445Z,25.42
2023-03-20T19:37:27.946Z,24.60
2023-03-20T19:39:54.514Z,24.55
2023-03-20T19:42:50.737Z,23.85
2023-03-20T19:45:07.419Z,24.45
2023-03-20T19:47:34.056Z,23.05
2023-03-20T19:50:00.477Z,23.45
2023-03-20T19:52:28.511Z,24.30
2023-03-20T19:55:02.582Z,23.65
2023-03-20T19:57:30.197Z,24.98
2023-03-20T20:00:32.240Z,24.50
2023-03-20T20:02:43.546Z,25.05
2023-03-20T20:05:10.083Z,24.25
2023-03-20T20:08:09.194Z,24.83
2023-03-20T20:10:23.180Z,24.05
2023-03-20T20:12:49.544Z,24.40
2023-03-20T20:15:16.082Z,23.00
2023-03-20T20:17:42.423Z,22.30
2023-03-20T20:20:09.639Z,24.27
2023-03-20T20:22:36.193Z,23.05
2023-03-20T20:25:02.522Z,23.58
2023-03-20T20:27:29.356Z,24.63
2023-03-20T20:29:55.658Z,23.75
2023-03-20T20:32:23.374Z,23.00
2023-03-20T20:38:30.489Z,22.45
2023-03-20T20:40:23.004Z,22.52
2023-03-20T20:42:49.324Z,23.10
2023-03-20T20:45:15.695Z,24.60
2023-03-20T20:47:42.188Z,23.02
2023-03-20T20:50:08.923Z,23.63
2023-03-20T20:52:35.644Z,24.38
2023-03-20T20:55:18.856Z,23.63
2023-03-20T20:57:47.768Z,23.02
2023-03-20T21:00:14.217Z,21.58
2023-03-20T21:02:40.650Z,23.23
2023-03-20T21:05:07.405Z,21.73
2023-03-20T21:07:33.787Z,22.15
2023-03-20T21:10:00.300Z,23.70
2023-03-20T21:12:38.179Z,22.02
2023-03-20T21:15:07.045Z,22.42
2023-03-20T21:17:33.680Z,23.00
2023-03-20T21:20:00.084Z,22.75
2023-03-20T21:22:26.639Z,21.90
2023-03-20T21:25:00.751Z,23.17
2023-03-20T21:27:33.663Z,23.30
2023-03-20T21:30:00.009Z,22.00
2023-03-20T21:32:26.512Z,23.25
2023-03-20T21:34:53.022Z,22.90
2023-03-20T21:38:33.325Z,22.83
2023-03-20T21:40:05.923Z,22.67
2023-03-20T21:42:32.452Z,21.02
2023-03-20T21:45:56.146Z,21.92
2023-03-20T21:54:20.432Z,22.58
2023-03-20T21:56:48.567Z,21.77
2023-03-20T21:59:36.942Z,23.38
2023-03-20T22:10:39.883Z,22.45
2023-03-20T22:16:10.108Z,21.95
2023-03-20T22:19:08.554Z,22.48
2023-03-20T22:24:45.253Z,22.38
2023-03-20T22:29:58.891Z,22.42
2023-03-20T22:32:47.714Z,21.05
2023-03-20T22:35:40.903Z,22.00
2023-03-20T22:41:13.258Z,22.35
2023-03-20T22:44:24.472Z,20.50
2023-03-20T22:46:16.868Z,20.45
2023-03-20T22:48:46.731Z,21.05
2023-03-20T22:51:13.765Z,22.20
2023-03-20T22:53:40.664Z,22.73
2023-03-20T22:56:07.459Z,20.80
2023-03-20T22:58:33.833Z,21.25
2023-03-20T23:01:00.182Z,21.08
2023-03-20T23:03:40.889Z,21.35
2023-03-20T23:06:09.245Z,21.00
2023-03-20T23:08:42.414Z,21.67
2023-03-20T23:11:14.714Z,21.77
2023-03-20T23:13:41.704Z,21.33
2023-03-20T23:16:08.130Z,21.35
2023-03-20T23:18:34.580Z,21.35
2023-03-20T23:21:00.909Z,20.15
2023-03-20T23:23:27.232Z,20.90
2023-03-20T23:25:53.593Z,20.92
2023-03-20T23:28:20.372Z,20.92
2023-03-20T23:30:56.797Z,20.27
2023-03-20T23:33:33.244Z,22.13
2023-03-20T23:36:13.994Z,21.23
2023-03-20T23:38:45.350Z,21.40
2023-03-20T23:41:11.693Z,20.30
2023-03-20T23:43:38.260Z,20.52
2023-03-20T23:46:04.618Z,20.70
2023-03-20T23:48:31.200Z,21.60
2023-03-20T23:50:57.583Z,20.58
2023-03-20T23:53:23.937Z,20.40
2023-03-20T23:55:50.292Z,21.48
2023-03-20T23:58:16.746Z,20.27
